DNCA

Margaret Ekpo International Airport

Calabar, Nigeria
TAF DNCA 180945Z 1812/1918 22010KT 9999 BKN011 FEW021CB PROB30 TEMPO 1814/1820 5000 -TSRA BKN009 FEW019CB BECMG 1821/1823 00000KT SCT007 TEMPO 1903/1907 5000 BR
Issued Valid From Valid To
Oct-18 @ 09:45 UTC
(2 hours ago)
Oct-18 @ 12:00 UTC
(in 12 minutes)
Oct-19 @ 18:00 UTC
(-1 days ago)
Oct-18 @ 12:00 to Oct-18 @ 21:00
TAF DNCA 180945Z 1812/1918 22010KT 9999 BKN011 FEW021CB
Wind Visibility Clouds
220° at 10 knots 10,000+ meters
  • Broken at 1,100' AGL
  • Few at 2,100' AGL
Temporary  (Probability 30%) Oct-18 @ 14:00 to Oct-18 @ 20:00
PROB30 TEMPO 1814/1820 5000 -TSRA BKN009 FEW019CB
Visibility Clouds Conditions
5,005 meters
  • Broken at 900' AGL
  • Few at 1,900' AGL
  • Light Thunderstorm
  • Light Rain
Becoming Oct-18 @ 21:00 to Oct-19 @ 18:00
BECMG 1821/1823 00000KT SCT007
Visibility Clouds
10,000+ meters
  • Scattered at 700' AGL
Temporary Oct-19 @ 03:00 to Oct-19 @ 07:00
TEMPO 1903/1907 5000 BR
Visibility Conditions
5,005 meters
  • Mist
TAF DNCA 180945Z 1812/1918 22010KT 9999 BKN011 FEW021CB PROB30 TEMPO 1814/1820 5000 -TSRA BKN009 FEW019CB BECMG 1821/1823 00000KT SCT007 TEMPO 1903/1907 5000 BR
Issued Oct-18 @ 09:45 UTC
(2 hours ago)
Valid From Oct-18 @ 12:00 UTC
(in 12 minutes)
Valid To Oct-19 @ 18:00 UTC
(-1 days ago)
Oct-18 @ 12:00 - Oct-18 @ 21:00
Wind Visibility
220° at 10 knots 10,000+ meters
Clouds
  • Broken at 1,100' AGL
  • Few at 2,100' AGL
Probability 30% Temporary Oct-18 @ 14:00 - Oct-18 @ 20:00
Clouds
  • Broken at 900' AGL
  • Few at 1,900' AGL
Conditions
  • Light Thunderstorm
  • Light Rain
Becoming Oct-18 @ 21:00 - Oct-19 @ 18:00
Clouds
  • Scattered at 700' AGL
Temporary Oct-19 @ 03:00 - Oct-19 @ 07:00
Conditions
  • Mist